Terminal Aerodrome Forecast
Issued by NWS Pocatello, ID

Home | Current Version | Previous Version | Text Only | Print | Product List | Glossary On
Versions: 1 2 3 4 5 6 7 8 9 10 11 12 13 14 15 16 17 18 19 20 21 22 23 24 25 26 27 28 29 30 31
123
FTUS45 KPIH 081130
TAFIDA
TAF
KIDA 081130Z 0812/0912 36005KT 2SM BR VCFG OVC003
      TEMPO 0812/0813 3/4SM BR OVC002
     FM081800 36005KT 3SM BR OVC006
     FM082100 36005KT 6SM BR OVC010
     FM090200 01005KT 1SM BR VCFG OVC003=

USA.gov is the U.S. government's official web portal to all federal, state and local government web resources and services.